Terminal Aerodrome Forecast
Issued by NWS Louisville, KY

Home | Current Version | Previous Version | Text Only | Print | Product List | Glossary On
Versions: 1 2 3 4 5 6 7 8 9 10 11 12 13 14 15 16 17 18
000
FTUS43 KLMK 051720
TAFLEX
TAF
KLEX 051720Z 0518/0618 VRB04KT P6SM BKN020 OVC200
      TEMPO 0519/0523 SCT020 BKN150
     FM052300 09008KT P6SM SCT025 OVC200
     FM060700 08009KT 5SM -RA BR BKN025
     FM060900 07008KT 2SM -RA BR OVC006
      TEMPO 0612/0616 2SM -RA BR BKN003=

USA.gov is the U.S. government's official web portal to all federal, state and local government web resources and services.